Elk Valley, North Carolina
Current Conditions -  °F | °C
As of 9:15 AM on Wednesday 28 Jan 2015 (Local Time) from KTNB Reporting Station
Clear Clear  
Wind Chill:   Ceiling: Unl
Heat Index: 19°   Visibility: 10mi
Dew Point:   Wind: 20mph
Humidity: 60%   Direction: 290°WNW
Pressure: 30.15"   Gusts: 26mph
Location:  36.1797°N, 81.8424°W
Report Text: KTNB 281415Z AUTO 29017G23KT 10SM CLR M07/M14 A3015 RMK AO2 T10751140
Loading
Personal Weather Stations






























Interactive Weather Map New forecast layout! Learn more

10-Day Weather Forecast

Advertisements
Track Severe Weather on mobile